sensor_id;sensor_type;location;lat;lon;timestamp;P1;durP1;ratioP1;P2;durP2;ratioP2
48911;SDS011;34722;52.108;5.044;2022-08-25T00:07:59;34.25;;;27.65;;
48911;SDS011;34722;52.108;5.044;2022-08-25T00:10:35;30.85;;;27.60;;
48911;SDS011;34722;52.108;5.044;2022-08-25T00:13:03;30.13;;;26.35;;
48911;SDS011;34722;52.108;5.044;2022-08-25T00:15:30;29.50;;;26.70;;
48911;SDS011;34722;52.108;5.044;2022-08-25T00:17:58;40.42;;;30.20;;
48911;SDS011;34722;52.108;5.044;2022-08-25T00:20:30;36.08;;;27.95;;
48911;SDS011;34722;52.108;5.044;2022-08-25T00:22:56;30.70;;;27.50;;
48911;SDS011;34722;52.108;5.044;2022-08-25T00:25:28;33.33;;;29.17;;
48911;SDS011;34722;52.108;5.044;2022-08-25T00:28:03;31.33;;;28.13;;
48911;SDS011;34722;52.108;5.044;2022-08-25T00:30:42;35.20;;;28.23;;
48911;SDS011;34722;52.108;5.044;2022-08-25T00:33:14;33.67;;;29.15;;
48911;SDS011;34722;52.108;5.044;2022-08-25T00:35:49;33.60;;;29.00;;
48911;SDS011;34722;52.108;5.044;2022-08-25T00:38:22;33.35;;;29.88;;
48911;SDS011;34722;52.108;5.044;2022-08-25T00:41:00;32.67;;;29.13;;
48911;SDS011;34722;52.108;5.044;2022-08-25T00:46:31;32.92;;;29.60;;
48911;SDS011;34722;52.108;5.044;2022-08-25T00:51:51;30.92;;;28.05;;
48911;SDS011;34722;52.108;5.044;2022-08-25T00:54:39;34.80;;;31.05;;
48911;SDS011;34722;52.108;5.044;2022-08-25T00:57:09;34.53;;;29.45;;
48911;SDS011;34722;52.108;5.044;2022-08-25T01:00:16;31.90;;;28.58;;
48911;SDS011;34722;52.108;5.044;2022-08-25T01:02:47;34.50;;;31.08;;
48911;SDS011;34722;52.108;5.044;2022-08-25T01:05:28;34.95;;;31.25;;
48911;SDS011;34722;52.108;5.044;2022-08-25T01:07:57;35.97;;;30.38;;
48911;SDS011;34722;52.108;5.044;2022-08-25T01:10:42;34.80;;;30.55;;
48911;SDS011;34722;52.108;5.044;2022-08-25T01:13:53;37.33;;;33.38;;
48911;SDS011;34722;52.108;5.044;2022-08-25T01:16:32;35.63;;;31.85;;
48911;SDS011;34722;52.108;5.044;2022-08-25T01:19:03;36.05;;;31.27;;
48911;SDS011;34722;52.108;5.044;2022-08-25T01:21:38;36.60;;;32.85;;
48911;SDS011;34722;52.108;5.044;2022-08-25T01:24:17;36.58;;;32.65;;
48911;SDS011;34722;52.108;5.044;2022-08-25T01:27:05;34.38;;;30.20;;
48911;SDS011;34722;52.108;5.044;2022-08-25T01:29:44;42.28;;;34.20;;
48911;SDS011;34722;52.108;5.044;2022-08-25T01:34:40;37.17;;;32.15;;
48911;SDS011;34722;52.108;5.044;2022-08-25T01:37:11;38.03;;;32.33;;
48911;SDS011;34722;52.108;5.044;2022-08-25T01:39:51;36.35;;;32.63;;
48911;SDS011;34722;52.108;5.044;2022-08-25T01:45:22;38.30;;;34.10;;
48911;SDS011;34722;52.108;5.044;2022-08-25T01:47:48;35.63;;;31.88;;
48911;SDS011;34722;52.108;5.044;2022-08-25T01:50:43;38.90;;;32.33;;
48911;SDS011;34722;52.108;5.044;2022-08-25T01:53:23;33.30;;;29.67;;
48911;SDS011;34722;52.108;5.044;2022-08-25T01:55:55;36.05;;;32.35;;
48911;SDS011;34722;52.108;5.044;2022-08-25T01:58:33;31.23;;;28.05;;
48911;SDS011;34722;52.108;5.044;2022-08-25T02:01:02;33.25;;;29.73;;
48911;SDS011;34722;52.108;5.044;2022-08-25T02:03:31;43.92;;;31.58;;
48911;SDS011;34722;52.108;5.044;2022-08-25T02:06:00;34.30;;;30.75;;
48911;SDS011;34722;52.108;5.044;2022-08-25T02:08:32;33.97;;;29.88;;
48911;SDS011;34722;52.108;5.044;2022-08-25T02:10:58;33.33;;;29.85;;
48911;SDS011;34722;52.108;5.044;2022-08-25T02:13:24;35.65;;;29.35;;
48911;SDS011;34722;52.108;5.044;2022-08-25T02:16:02;32.10;;;28.92;;
48911;SDS011;34722;52.108;5.044;2022-08-25T02:18:35;32.58;;;29.05;;
48911;SDS011;34722;52.108;5.044;2022-08-25T02:21:04;31.90;;;28.77;;
48911;SDS011;34722;52.108;5.044;2022-08-25T02:23:40;33.47;;;29.92;;
48911;SDS011;34722;52.108;5.044;2022-08-25T02:26:15;32.72;;;29.48;;
48911;SDS011;34722;52.108;5.044;2022-08-25T02:28:56;33.17;;;29.85;;
48911;SDS011;34722;52.108;5.044;2022-08-25T02:31:23;31.20;;;28.30;;
48911;SDS011;34722;52.108;5.044;2022-08-25T02:33:49;33.50;;;29.98;;
48911;SDS011;34722;52.108;5.044;2022-08-25T02:36:15;31.52;;;28.15;;
48911;SDS011;34722;52.108;5.044;2022-08-25T02:38:51;32.40;;;29.20;;
48911;SDS011;34722;52.108;5.044;2022-08-25T02:41:24;31.63;;;28.45;;
48911;SDS011;34722;52.108;5.044;2022-08-25T02:43:53;31.98;;;28.65;;
48911;SDS011;34722;52.108;5.044;2022-08-25T02:46:24;30.25;;;26.92;;
48911;SDS011;34722;52.108;5.044;2022-08-25T02:51:37;29.50;;;25.42;;
48911;SDS011;34722;52.108;5.044;2022-08-25T02:54:09;28.90;;;25.83;;
48911;SDS011;34722;52.108;5.044;2022-08-25T02:56:38;27.90;;;24.90;;
48911;SDS011;34722;52.108;5.044;2022-08-25T02:59:11;31.77;;;25.58;;
48911;SDS011;34722;52.108;5.044;2022-08-25T03:01:48;28.55;;;25.42;;
48911;SDS011;34722;52.108;5.044;2022-08-25T03:04:14;26.33;;;23.13;;
48911;SDS011;34722;52.108;5.044;2022-08-25T03:06:46;26.92;;;23.80;;
48911;SDS011;34722;52.108;5.044;2022-08-25T03:09:12;24.10;;;21.60;;
48911;SDS011;34722;52.108;5.044;2022-08-25T03:11:45;23.75;;;20.85;;
48911;SDS011;34722;52.108;5.044;2022-08-25T03:14:11;22.30;;;20.00;;
48911;SDS011;34722;52.108;5.044;2022-08-25T03:16:40;19.65;;;17.65;;
48911;SDS011;34722;52.108;5.044;2022-08-25T03:19:13;19.33;;;17.45;;
48911;SDS011;34722;52.108;5.044;2022-08-25T03:21:39;18.48;;;16.75;;
48911;SDS011;34722;52.108;5.044;2022-08-25T03:24:12;17.33;;;14.30;;
48911;SDS011;34722;52.108;5.044;2022-08-25T03:26:45;15.10;;;12.98;;
48911;SDS011;34722;52.108;5.044;2022-08-25T03:29:25;13.25;;;11.73;;
48911;SDS011;34722;52.108;5.044;2022-08-25T03:31:58;14.40;;;10.75;;
48911;SDS011;34722;52.108;5.044;2022-08-25T03:34:26;17.08;;;10.70;;
48911;SDS011;34722;52.108;5.044;2022-08-25T03:36:58;11.60;;;9.50;;
48911;SDS011;34722;52.108;5.044;2022-08-25T03:39:28;10.32;;;8.70;;
48911;SDS011;34722;52.108;5.044;2022-08-25T03:42:07;11.32;;;9.98;;
48911;SDS011;34722;52.108;5.044;2022-08-25T03:44:32;12.52;;;9.60;;
48911;SDS011;34722;52.108;5.044;2022-08-25T03:46:59;13.02;;;9.20;;
48911;SDS011;34722;52.108;5.044;2022-08-25T03:49:25;12.48;;;8.85;;
48911;SDS011;34722;52.108;5.044;2022-08-25T03:51:51;13.80;;;8.07;;
48911;SDS011;34722;52.108;5.044;2022-08-25T03:54:22;11.48;;;8.65;;
48911;SDS011;34722;52.108;5.044;2022-08-25T03:56:49;16.85;;;8.60;;
48911;SDS011;34722;52.108;5.044;2022-08-25T03:59:25;13.73;;;9.18;;
48911;SDS011;34722;52.108;5.044;2022-08-25T04:01:51;9.48;;;8.57;;
48911;SDS011;34722;52.108;5.044;2022-08-25T04:04:17;12.57;;;9.55;;
48911;SDS011;34722;52.108;5.044;2022-08-25T04:06:44;11.23;;;8.95;;
48911;SDS011;34722;52.108;5.044;2022-08-25T04:09:17;9.02;;;7.95;;
48911;SDS011;34722;52.108;5.044;2022-08-25T04:11:55;12.18;;;9.60;;
48911;SDS011;34722;52.108;5.044;2022-08-25T04:14:23;15.00;;;8.48;;
48911;SDS011;34722;52.108;5.044;2022-08-25T04:16:55;11.32;;;8.73;;
48911;SDS011;34722;52.108;5.044;2022-08-25T04:19:21;10.48;;;7.60;;
48911;SDS011;34722;52.108;5.044;2022-08-25T04:21:47;12.40;;;9.10;;
48911;SDS011;34722;52.108;5.044;2022-08-25T04:24:16;8.65;;;7.75;;
48911;SDS011;34722;52.108;5.044;2022-08-25T04:26:47;12.65;;;8.70;;
48911;SDS011;34722;52.108;5.044;2022-08-25T04:29:18;16.23;;;8.63;;
48911;SDS011;34722;52.108;5.044;2022-08-25T04:31:48;13.02;;;8.85;;
48911;SDS011;34722;52.108;5.044;2022-08-25T04:34:15;8.68;;;7.85;;
48911;SDS011;34722;52.108;5.044;2022-08-25T04:36:42;8.85;;;7.85;;
48911;SDS011;34722;52.108;5.044;2022-08-25T04:39:09;15.50;;;8.23;;
48911;SDS011;34722;52.108;5.044;2022-08-25T04:41:34;9.27;;;8.38;;
48911;SDS011;34722;52.108;5.044;2022-08-25T04:44:00;9.20;;;8.27;;
48911;SDS011;34722;52.108;5.044;2022-08-25T04:46:28;13.82;;;8.77;;
48911;SDS011;34722;52.108;5.044;2022-08-25T04:48:57;10.18;;;8.35;;
48911;SDS011;34722;52.108;5.044;2022-08-25T04:51:26;12.90;;;8.68;;
48911;SDS011;34722;52.108;5.044;2022-08-25T04:53:54;9.48;;;7.30;;
48911;SDS011;34722;52.108;5.044;2022-08-25T04:56:22;15.55;;;7.90;;
48911;SDS011;34722;52.108;5.044;2022-08-25T04:58:52;9.77;;;8.23;;
48911;SDS011;34722;52.108;5.044;2022-08-25T05:01:20;17.58;;;8.90;;
48911;SDS011;34722;52.108;5.044;2022-08-25T05:04:06;13.52;;;8.75;;
48911;SDS011;34722;52.108;5.044;2022-08-25T05:06:33;11.77;;;8.30;;
48911;SDS011;34722;52.108;5.044;2022-08-25T05:09:00;10.10;;;7.97;;
48911;SDS011;34722;52.108;5.044;2022-08-25T05:11:31;9.23;;;7.20;;
48911;SDS011;34722;52.108;5.044;2022-08-25T05:13:58;12.60;;;8.30;;
48911;SDS011;34722;52.108;5.044;2022-08-25T05:16:25;9.13;;;8.02;;
48911;SDS011;34722;52.108;5.044;2022-08-25T05:18:54;9.07;;;7.25;;
48911;SDS011;34722;52.108;5.044;2022-08-25T05:21:22;16.88;;;7.50;;
48911;SDS011;34722;52.108;5.044;2022-08-25T05:23:53;12.55;;;7.47;;
48911;SDS011;34722;52.108;5.044;2022-08-25T05:29:25;9.18;;;7.82;;
48911;SDS011;34722;52.108;5.044;2022-08-25T05:32:10;12.20;;;7.57;;
48911;SDS011;34722;52.108;5.044;2022-08-25T05:34:40;14.55;;;7.15;;
48911;SDS011;34722;52.108;5.044;2022-08-25T05:37:15;9.77;;;7.10;;
48911;SDS011;34722;52.108;5.044;2022-08-25T05:39:49;14.00;;;8.15;;
48911;SDS011;34722;52.108;5.044;2022-08-25T05:42:15;11.18;;;7.47;;
48911;SDS011;34722;52.108;5.044;2022-08-25T05:44:47;15.63;;;7.15;;
48911;SDS011;34722;52.108;5.044;2022-08-25T05:47:13;9.88;;;7.55;;
48911;SDS011;34722;52.108;5.044;2022-08-25T05:49:39;11.63;;;7.38;;
48911;SDS011;34722;52.108;5.044;2022-08-25T05:52:05;11.02;;;7.93;;
48911;SDS011;34722;52.108;5.044;2022-08-25T05:54:34;9.32;;;7.32;;
48911;SDS011;34722;52.108;5.044;2022-08-25T05:57:02;11.02;;;7.18;;
48911;SDS011;34722;52.108;5.044;2022-08-25T05:59:28;13.40;;;7.82;;
48911;SDS011;34722;52.108;5.044;2022-08-25T06:01:54;15.65;;;8.00;;
48911;SDS011;34722;52.108;5.044;2022-08-25T06:04:48;14.55;;;7.78;;
48911;SDS011;34722;52.108;5.044;2022-08-25T06:07:31;10.25;;;6.65;;
48911;SDS011;34722;52.108;5.044;2022-08-25T06:10:04;15.35;;;7.10;;
48911;SDS011;34722;52.108;5.044;2022-08-25T06:12:46;8.20;;;7.28;;
48911;SDS011;34722;52.108;5.044;2022-08-25T06:15:15;9.52;;;6.75;;
48911;SDS011;34722;52.108;5.044;2022-08-25T06:17:43;14.27;;;7.18;;
48911;SDS011;34722;52.108;5.044;2022-08-25T06:20:13;12.15;;;7.05;;
48911;SDS011;34722;52.108;5.044;2022-08-25T06:22:45;12.32;;;6.80;;
48911;SDS011;34722;52.108;5.044;2022-08-25T06:25:19;13.57;;;7.13;;
48911;SDS011;34722;52.108;5.044;2022-08-25T06:27:55;8.57;;;7.00;;
48911;SDS011;34722;52.108;5.044;2022-08-25T06:30:56;9.98;;;7.20;;
48911;SDS011;34722;52.108;5.044;2022-08-25T06:33:31;7.60;;;6.00;;
48911;SDS011;34722;52.108;5.044;2022-08-25T06:35:58;7.82;;;7.00;;
48911;SDS011;34722;52.108;5.044;2022-08-25T06:38:27;16.63;;;6.78;;
48911;SDS011;34722;52.108;5.044;2022-08-25T06:41:03;7.40;;;6.05;;
48911;SDS011;34722;52.108;5.044;2022-08-25T06:46:11;9.63;;;6.20;;
48911;SDS011;34722;52.108;5.044;2022-08-25T06:48:42;13.70;;;6.20;;
48911;SDS011;34722;52.108;5.044;2022-08-25T06:51:22;10.30;;;6.32;;
48911;SDS011;34722;52.108;5.044;2022-08-25T06:54:07;8.85;;;6.95;;
48911;SDS011;34722;52.108;5.044;2022-08-25T06:56:52;7.00;;;6.43;;
48911;SDS011;34722;52.108;5.044;2022-08-25T06:59:25;10.27;;;6.95;;
48911;SDS011;34722;52.108;5.044;2022-08-25T07:01:51;10.05;;;6.05;;
48911;SDS011;34722;52.108;5.044;2022-08-25T07:04:28;10.77;;;6.32;;
48911;SDS011;34722;52.108;5.044;2022-08-25T07:06:54;11.45;;;6.30;;
48911;SDS011;34722;52.108;5.044;2022-08-25T07:09:26;14.18;;;6.55;;
48911;SDS011;34722;52.108;5.044;2022-08-25T07:11:53;8.77;;;6.80;;
48911;SDS011;34722;52.108;5.044;2022-08-25T07:14:24;11.43;;;6.72;;
48911;SDS011;34722;52.108;5.044;2022-08-25T07:16:50;9.23;;;7.05;;
48911;SDS011;34722;52.108;5.044;2022-08-25T07:19:24;12.90;;;6.05;;
48911;SDS011;34722;52.108;5.044;2022-08-25T07:21:52;11.07;;;6.35;;
48911;SDS011;34722;52.108;5.044;2022-08-25T07:24:19;12.43;;;7.15;;
48911;SDS011;34722;52.108;5.044;2022-08-25T07:26:46;14.00;;;7.30;;
48911;SDS011;34722;52.108;5.044;2022-08-25T07:29:17;9.38;;;6.80;;
48911;SDS011;34722;52.108;5.044;2022-08-25T07:31:45;12.57;;;7.20;;
48911;SDS011;34722;52.108;5.044;2022-08-25T07:34:11;11.40;;;7.75;;
48911;SDS011;34722;52.108;5.044;2022-08-25T07:37:02;8.32;;;6.97;;
48911;SDS011;34722;52.108;5.044;2022-08-25T07:39:28;8.40;;;7.40;;
48911;SDS011;34722;52.108;5.044;2022-08-25T07:42:10;12.93;;;7.43;;
48911;SDS011;34722;52.108;5.044;2022-08-25T07:44:58;11.15;;;6.13;;
48911;SDS011;34722;52.108;5.044;2022-08-25T07:47:30;11.07;;;6.97;;
48911;SDS011;34722;52.108;5.044;2022-08-25T07:50:05;7.75;;;6.55;;
48911;SDS011;34722;52.108;5.044;2022-08-25T07:52:37;12.30;;;6.80;;
48911;SDS011;34722;52.108;5.044;2022-08-25T07:55:13;10.68;;;6.15;;
48911;SDS011;34722;52.108;5.044;2022-08-25T07:57:45;11.10;;;6.45;;
48911;SDS011;34722;52.108;5.044;2022-08-25T08:00:22;11.27;;;6.72;;
48911;SDS011;34722;52.108;5.044;2022-08-25T08:02:51;9.77;;;6.27;;
48911;SDS011;34722;52.108;5.044;2022-08-25T08:05:19;14.98;;;6.68;;
48911;SDS011;34722;52.108;5.044;2022-08-25T08:07:52;13.43;;;6.70;;
48911;SDS011;34722;52.108;5.044;2022-08-25T08:10:22;9.63;;;6.60;;
48911;SDS011;34722;52.108;5.044;2022-08-25T08:12:52;10.57;;;6.20;;
48911;SDS011;34722;52.108;5.044;2022-08-25T08:15:28;9.27;;;6.00;;
48911;SDS011;34722;52.108;5.044;2022-08-25T08:17:57;9.00;;;6.10;;
48911;SDS011;34722;52.108;5.044;2022-08-25T08:20:24;9.38;;;6.43;;
48911;SDS011;34722;52.108;5.044;2022-08-25T08:22:53;10.95;;;6.40;;
48911;SDS011;34722;52.108;5.044;2022-08-25T08:25:28;11.27;;;6.93;;
48911;SDS011;34722;52.108;5.044;2022-08-25T08:27:57;12.98;;;5.95;;
48911;SDS011;34722;52.108;5.044;2022-08-25T08:30:26;10.73;;;6.10;;
48911;SDS011;34722;52.108;5.044;2022-08-25T08:32:55;11.25;;;5.80;;
48911;SDS011;34722;52.108;5.044;2022-08-25T08:35:20;9.60;;;5.85;;
48911;SDS011;34722;52.108;5.044;2022-08-25T08:37:46;12.25;;;6.35;;
48911;SDS011;34722;52.108;5.044;2022-08-25T08:40:13;11.38;;;7.25;;
48911;SDS011;34722;52.108;5.044;2022-08-25T08:42:53;11.77;;;6.03;;
48911;SDS011;34722;52.108;5.044;2022-08-25T08:45:29;14.10;;;5.85;;
48911;SDS011;34722;52.108;5.044;2022-08-25T08:50:29;10.43;;;5.90;;
48911;SDS011;34722;52.108;5.044;2022-08-25T08:58:24;7.88;;;5.80;;
48911;SDS011;34722;52.108;5.044;2022-08-25T09:01:02;10.32;;;6.03;;
48911;SDS011;34722;52.108;5.044;2022-08-25T09:03:33;7.32;;;5.20;;
48911;SDS011;34722;52.108;5.044;2022-08-25T09:08:37;6.18;;;5.50;;
48911;SDS011;34722;52.108;5.044;2022-08-25T09:14:11;10.98;;;6.03;;
48911;SDS011;34722;52.108;5.044;2022-08-25T09:22:00;9.05;;;5.63;;
48911;SDS011;34722;52.108;5.044;2022-08-25T09:24:50;6.43;;;5.72;;
48911;SDS011;34722;52.108;5.044;2022-08-25T09:30:26;6.60;;;5.40;;
48911;SDS011;34722;52.108;5.044;2022-08-25T09:32:57;5.28;;;4.88;;
48911;SDS011;34722;52.108;5.044;2022-08-25T09:35:32;11.00;;;5.35;;
48911;SDS011;34722;52.108;5.044;2022-08-25T09:38:10;7.53;;;4.57;;
48911;SDS011;34722;52.108;5.044;2022-08-25T09:40:58;10.32;;;4.60;;
48911;SDS011;34722;52.108;5.044;2022-08-25T09:43:29;13.38;;;6.05;;
48911;SDS011;34722;52.108;5.044;2022-08-25T09:46:00;9.27;;;5.35;;
48911;SDS011;34722;52.108;5.044;2022-08-25T09:50:58;9.90;;;6.07;;
48911;SDS011;34722;52.108;5.044;2022-08-25T09:53:26;8.18;;;5.43;;
48911;SDS011;34722;52.108;5.044;2022-08-25T09:56:12;9.60;;;5.22;;
48911;SDS011;34722;52.108;5.044;2022-08-25T09:58:37;16.20;;;5.32;;
48911;SDS011;34722;52.108;5.044;2022-08-25T10:01:22;6.22;;;4.70;;
48911;SDS011;34722;52.108;5.044;2022-08-25T10:03:56;9.52;;;4.97;;
48911;SDS011;34722;52.108;5.044;2022-08-25T10:06:24;6.35;;;4.97;;
48911;SDS011;34722;52.108;5.044;2022-08-25T10:08:57;6.53;;;5.03;;
48911;SDS011;34722;52.108;5.044;2022-08-25T10:11:31;10.80;;;5.25;;
48911;SDS011;34722;52.108;5.044;2022-08-25T10:17:12;7.70;;;5.13;;
48911;SDS011;34722;52.108;5.044;2022-08-25T10:19:50;10.73;;;5.35;;
48911;SDS011;34722;52.108;5.044;2022-08-25T10:22:24;6.65;;;5.70;;
48911;SDS011;34722;52.108;5.044;2022-08-25T10:25:01;7.63;;;5.18;;
48911;SDS011;34722;52.108;5.044;2022-08-25T10:30:18;6.75;;;4.50;;
48911;SDS011;34722;52.108;5.044;2022-08-25T10:40:58;9.48;;;4.90;;
48911;SDS011;34722;52.108;5.044;2022-08-25T10:46:34;6.20;;;4.55;;
48911;SDS011;34722;52.108;5.044;2022-08-25T10:49:18;6.00;;;4.13;;
48911;SDS011;34722;52.108;5.044;2022-08-25T10:52:04;9.80;;;4.38;;
48911;SDS011;34722;52.108;5.044;2022-08-25T10:54:57;5.85;;;4.25;;
48911;SDS011;34722;52.108;5.044;2022-08-25T10:57:54;7.00;;;4.35;;
48911;SDS011;34722;52.108;5.044;2022-08-25T11:00:37;7.68;;;4.32;;
48911;SDS011;34722;52.108;5.044;2022-08-25T11:03:29;4.10;;;3.80;;
48911;SDS011;34722;52.108;5.044;2022-08-25T11:06:12;5.65;;;4.22;;
48911;SDS011;34722;52.108;5.044;2022-08-25T11:12:31;6.05;;;4.60;;
48911;SDS011;34722;52.108;5.044;2022-08-25T11:15:08;5.20;;;4.32;;
48911;SDS011;34722;52.108;5.044;2022-08-25T11:20:58;6.07;;;4.78;;
48911;SDS011;34722;52.108;5.044;2022-08-25T11:23:52;9.43;;;5.15;;
48911;SDS011;34722;52.108;5.044;2022-08-25T11:26:29;7.63;;;4.38;;
48911;SDS011;34722;52.108;5.044;2022-08-25T11:29:02;4.93;;;4.45;;
48911;SDS011;34722;52.108;5.044;2022-08-25T11:31:44;7.53;;;4.72;;
48911;SDS011;34722;52.108;5.044;2022-08-25T11:34:13;6.70;;;4.07;;
48911;SDS011;34722;52.108;5.044;2022-08-25T11:36:40;7.57;;;4.80;;
48911;SDS011;34722;52.108;5.044;2022-08-25T11:44:43;4.22;;;3.90;;
48911;SDS011;34722;52.108;5.044;2022-08-25T11:50:00;6.90;;;4.22;;
48911;SDS011;34722;52.108;5.044;2022-08-25T12:01:04;5.28;;;4.10;;
48911;SDS011;34722;52.108;5.044;2022-08-25T12:21:47;7.13;;;4.50;;
48911;SDS011;34722;52.108;5.044;2022-08-25T12:24:14;6.50;;;4.25;;
48911;SDS011;34722;52.108;5.044;2022-08-25T12:27:01;6.97;;;5.07;;
48911;SDS011;34722;52.108;5.044;2022-08-25T12:29:44;5.50;;;4.80;;
48911;SDS011;34722;52.108;5.044;2022-08-25T12:32:37;4.72;;;4.32;;
48911;SDS011;34722;52.108;5.044;2022-08-25T12:41:17;9.65;;;4.57;;
48911;SDS011;34722;52.108;5.044;2022-08-25T12:43:49;5.85;;;4.63;;
48911;SDS011;34722;52.108;5.044;2022-08-25T12:54:23;5.18;;;4.13;;
48911;SDS011;34722;52.108;5.044;2022-08-25T12:57:45;4.68;;;3.90;;
48911;SDS011;34722;52.108;5.044;2022-08-25T13:00:16;7.53;;;4.43;;
48911;SDS011;34722;52.108;5.044;2022-08-25T13:11:36;7.97;;;4.60;;
48911;SDS011;34722;52.108;5.044;2022-08-25T13:14:15;5.18;;;4.05;;
48911;SDS011;34722;52.108;5.044;2022-08-25T13:16:55;6.00;;;4.70;;
48911;SDS011;34722;52.108;5.044;2022-08-25T13:19:22;5.63;;;4.50;;
48911;SDS011;34722;52.108;5.044;2022-08-25T13:21:49;5.65;;;4.78;;
48911;SDS011;34722;52.108;5.044;2022-08-25T13:27:02;5.90;;;5.03;;
48911;SDS011;34722;52.108;5.044;2022-08-25T13:32:03;8.95;;;4.72;;
48911;SDS011;34722;52.108;5.044;2022-08-25T13:34:32;7.65;;;4.40;;
48911;SDS011;34722;52.108;5.044;2022-08-25T13:37:06;6.75;;;4.70;;
48911;SDS011;34722;52.108;5.044;2022-08-25T13:40:10;8.55;;;4.95;;
48911;SDS011;34722;52.108;5.044;2022-08-25T13:42:43;7.45;;;4.68;;
48911;SDS011;34722;52.108;5.044;2022-08-25T13:45:13;4.82;;;4.25;;
48911;SDS011;34722;52.108;5.044;2022-08-25T13:47:41;7.72;;;4.65;;
48911;SDS011;34722;52.108;5.044;2022-08-25T13:51:15;10.27;;;5.25;;
48911;SDS011;34722;52.108;5.044;2022-08-25T13:53:19;8.63;;;4.80;;
48911;SDS011;34722;52.108;5.044;2022-08-25T13:55:52;6.32;;;4.63;;
48911;SDS011;34722;52.108;5.044;2022-08-25T13:58:27;6.63;;;4.90;;
48911;SDS011;34722;52.108;5.044;2022-08-25T14:06:44;4.90;;;4.45;;
48911;SDS011;34722;52.108;5.044;2022-08-25T14:09:13;7.80;;;4.78;;
48911;SDS011;34722;52.108;5.044;2022-08-25T14:11:54;12.15;;;4.22;;
48911;SDS011;34722;52.108;5.044;2022-08-25T14:16:48;6.63;;;5.18;;
48911;SDS011;34722;52.108;5.044;2022-08-25T14:19:20;9.77;;;5.60;;
48911;SDS011;34722;52.108;5.044;2022-08-25T14:21:47;5.25;;;4.72;;
48911;SDS011;34722;52.108;5.044;2022-08-25T14:24:15;5.65;;;5.07;;
48911;SDS011;34722;52.108;5.044;2022-08-25T14:26:42;7.85;;;5.50;;
48911;SDS011;34722;52.108;5.044;2022-08-25T14:29:09;8.25;;;5.35;;
48911;SDS011;34722;52.108;5.044;2022-08-25T14:31:36;6.18;;;5.00;;
48911;SDS011;34722;52.108;5.044;2022-08-25T14:34:08;5.93;;;4.80;;
48911;SDS011;34722;52.108;5.044;2022-08-25T14:36:40;6.05;;;4.72;;
48911;SDS011;34722;52.108;5.044;2022-08-25T14:39:07;7.85;;;4.78;;
48911;SDS011;34722;52.108;5.044;2022-08-25T20:47:41;77.80;;;51.08;;
48911;SDS011;34722;52.108;5.044;2022-08-25T20:50:08;77.65;;;53.28;;
48911;SDS011;34722;52.108;5.044;2022-08-25T20:52:37;74.97;;;51.35;;
48911;SDS011;34722;52.108;5.044;2022-08-25T20:55:03;73.90;;;53.10;;
48911;SDS011;34722;52.108;5.044;2022-08-25T20:57:30;73.13;;;52.60;;
48911;SDS011;34722;52.108;5.044;2022-08-25T20:59:57;77.85;;;54.05;;
48911;SDS011;34722;52.108;5.044;2022-08-25T21:02:23;84.82;;;53.47;;
48911;SDS011;34722;52.108;5.044;2022-08-25T21:04:51;65.70;;;42.50;;
48911;SDS011;34722;52.108;5.044;2022-08-25T21:07:17;59.25;;;37.17;;
48911;SDS011;34722;52.108;5.044;2022-08-25T21:09:44;51.38;;;33.88;;
48911;SDS011;34722;52.108;5.044;2022-08-25T21:12:10;43.38;;;28.77;;
48911;SDS011;34722;52.108;5.044;2022-08-25T21:14:37;37.33;;;24.85;;
48911;SDS011;34722;52.108;5.044;2022-08-25T21:17:14;44.67;;;22.10;;
48911;SDS011;34722;52.108;5.044;2022-08-25T21:24:45;24.70;;;13.38;;
48911;SDS011;34722;52.108;5.044;2022-08-25T21:27:11;21.75;;;11.80;;
48911;SDS011;34722;52.108;5.044;2022-08-25T21:29:37;24.17;;;11.50;;
48911;SDS011;34722;52.108;5.044;2022-08-25T21:32:03;19.67;;;10.13;;
48911;SDS011;34722;52.108;5.044;2022-08-25T21:34:29;17.15;;;9.23;;
48911;SDS011;34722;52.108;5.044;2022-08-25T21:36:56;18.15;;;8.02;;
48911;SDS011;34722;52.108;5.044;2022-08-25T21:39:22;16.40;;;7.95;;
48911;SDS011;34722;52.108;5.044;2022-08-25T21:41:50;12.73;;;6.53;;
48911;SDS011;34722;52.108;5.044;2022-08-25T21:44:16;15.45;;;7.47;;
48911;SDS011;34722;52.108;5.044;2022-08-25T21:46:43;19.77;;;8.38;;
48911;SDS011;34722;52.108;5.044;2022-08-25T21:49:09;18.38;;;6.07;;
48911;SDS011;34722;52.108;5.044;2022-08-25T21:51:39;11.80;;;5.88;;
48911;SDS011;34722;52.108;5.044;2022-08-25T21:54:08;9.93;;;5.47;;
48911;SDS011;34722;52.108;5.044;2022-08-25T21:56:42;13.70;;;5.85;;
48911;SDS011;34722;52.108;5.044;2022-08-25T21:59:17;10.23;;;5.40;;
48911;SDS011;34722;52.108;5.044;2022-08-25T22:01:48;15.55;;;4.65;;
48911;SDS011;34722;52.108;5.044;2022-08-25T22:04:18;14.50;;;4.90;;
48911;SDS011;34722;52.108;5.044;2022-08-25T22:06:44;10.60;;;5.07;;
48911;SDS011;34722;52.108;5.044;2022-08-25T22:09:10;11.80;;;3.85;;
48911;SDS011;34722;52.108;5.044;2022-08-25T22:11:36;15.85;;;4.88;;
48911;SDS011;34722;52.108;5.044;2022-08-25T22:14:04;14.63;;;4.47;;
48911;SDS011;34722;52.108;5.044;2022-08-25T22:16:31;12.90;;;4.30;;
48911;SDS011;34722;52.108;5.044;2022-08-25T22:18:57;8.30;;;3.85;;
48911;SDS011;34722;52.108;5.044;2022-08-25T22:21:23;14.00;;;4.68;;
48911;SDS011;34722;52.108;5.044;2022-08-25T22:23:51;10.85;;;4.35;;
48911;SDS011;34722;52.108;5.044;2022-08-25T22:26:20;11.35;;;4.63;;
48911;SDS011;34722;52.108;5.044;2022-08-25T22:28:46;10.57;;;3.85;;
48911;SDS011;34722;52.108;5.044;2022-08-25T22:31:12;15.45;;;4.32;;
48911;SDS011;34722;52.108;5.044;2022-08-25T22:33:39;9.85;;;4.53;;
48911;SDS011;34722;52.108;5.044;2022-08-25T22:36:12;11.73;;;5.30;;
48911;SDS011;34722;52.108;5.044;2022-08-25T22:38:43;11.52;;;5.22;;
48911;SDS011;34722;52.108;5.044;2022-08-25T22:41:09;10.45;;;4.20;;
48911;SDS011;34722;52.108;5.044;2022-08-25T22:43:35;14.32;;;4.90;;
48911;SDS011;34722;52.108;5.044;2022-08-25T22:46:02;10.55;;;4.55;;
48911;SDS011;34722;52.108;5.044;2022-08-25T22:48:29;11.70;;;4.88;;
48911;SDS011;34722;52.108;5.044;2022-08-25T22:51:01;17.13;;;4.85;;
48911;SDS011;34722;52.108;5.044;2022-08-25T22:53:34;13.05;;;4.90;;
48911;SDS011;34722;52.108;5.044;2022-08-25T22:56:02;13.02;;;4.90;;
48911;SDS011;34722;52.108;5.044;2022-08-25T22:58:29;13.07;;;5.75;;
48911;SDS011;34722;52.108;5.044;2022-08-25T23:00:55;11.80;;;5.63;;
48911;SDS011;34722;52.108;5.044;2022-08-25T23:03:22;12.00;;;4.60;;
48911;SDS011;34722;52.108;5.044;2022-08-25T23:05:49;11.32;;;4.80;;
48911;SDS011;34722;52.108;5.044;2022-08-25T23:08:14;15.98;;;5.40;;
48911;SDS011;34722;52.108;5.044;2022-08-25T23:10:45;11.98;;;5.28;;
48911;SDS011;34722;52.108;5.044;2022-08-25T23:13:13;14.13;;;4.65;;
48911;SDS011;34722;52.108;5.044;2022-08-25T23:15:38;23.70;;;7.22;;
48911;SDS011;34722;52.108;5.044;2022-08-25T23:18:04;12.57;;;4.80;;
48911;SDS011;34722;52.108;5.044;2022-08-25T23:20:30;13.70;;;5.45;;
48911;SDS011;34722;52.108;5.044;2022-08-25T23:23:14;13.18;;;4.90;;
48911;SDS011;34722;52.108;5.044;2022-08-25T23:25:39;15.43;;;4.85;;
48911;SDS011;34722;52.108;5.044;2022-08-25T23:28:05;14.05;;;4.97;;
48911;SDS011;34722;52.108;5.044;2022-08-25T23:30:31;11.43;;;4.90;;
48911;SDS011;34722;52.108;5.044;2022-08-25T23:32:56;14.00;;;5.10;;
48911;SDS011;34722;52.108;5.044;2022-08-25T23:35:22;12.85;;;4.93;;
48911;SDS011;34722;52.108;5.044;2022-08-25T23:37:48;13.50;;;5.28;;
48911;SDS011;34722;52.108;5.044;2022-08-25T23:40:15;15.45;;;6.22;;
48911;SDS011;34722;52.108;5.044;2022-08-25T23:42:40;17.60;;;4.70;;